Time;durP1;ratioP1;P1;durP2;ratioP2;P2;SDS_P1;SDS_P2;PMS_P1;PMS_P2;Temp;Humidity;BMP_temperature;BMP_pressure;BME280_temperature;BME280_humidity;BME280_pressure;Samples;Min_cycle;Max_cycle;Signal;HPM_P1;HPM_P2
2022/04/20 00:01:25;;;;;;;2.22;1.48;;;;;;;12.41;34.60;99964.53;5090668;28;20040;-60
2022/04/20 00:03:52;;;;;;;3.22;1.52;;;;;;;12.35;34.82;99958.69;5090314;28;20589;-62
2022/04/20 00:06:19;;;;;;;3.55;1.38;;;;;;;12.32;34.81;99961.50;5091434;28;20612;-60
2022/04/20 00:08:45;;;;;;;1.80;1.60;;;;;;;12.29;34.79;99966.97;5091150;28;20044;-60
2022/04/20 00:11:12;;;;;;;1.65;1.52;;;;;;;12.27;34.89;99960.09;5090618;28;20113;-60
2022/04/20 00:13:38;;;;;;;3.22;1.30;;;;;;;12.23;35.14;99954.16;5090987;28;20054;-61
2022/04/20 00:16:05;;;;;;;2.83;1.45;;;;;;;12.22;34.98;99963.00;5091079;28;20105;-60
2022/04/20 00:18:31;;;;;;;1.45;1.30;;;;;;;12.17;35.03;99959.78;5090727;28;20051;-59
2022/04/20 00:20:58;;;;;;;2.50;1.25;;;;;;;12.11;35.02;99946.03;5090661;28;20056;-60
2022/04/20 00:23:24;;;;;;;2.13;1.23;;;;;;;12.07;35.03;99954.25;5090932;28;20373;-61
2022/04/20 00:25:51;;;;;;;1.65;1.30;;;;;;;12.03;35.21;99956.16;5090970;28;20102;-61
2022/04/20 00:28:18;;;;;;;1.73;1.50;;;;;;;11.99;35.19;99962.56;5090840;28;20052;-60
2022/04/20 00:30:44;;;;;;;3.35;1.23;;;;;;;11.95;35.26;99959.28;5090648;28;20085;-60
2022/04/20 00:33:11;;;;;;;2.72;1.15;;;;;;;11.91;35.08;99956.91;5090710;28;20538;-61
2022/04/20 00:35:39;;;;;;;1.98;1.30;;;;;;;11.86;35.19;99955.38;5090955;28;20455;-61
2022/04/20 00:38:06;;;;;;;1.60;1.27;;;;;;;11.83;35.40;99960.00;5089521;28;20040;-60
2022/04/20 00:40:33;;;;;;;1.95;1.17;;;;;;;11.78;35.54;99967.34;5090299;28;20040;-60
2022/04/20 00:42:59;;;;;;;3.45;1.20;;;;;;;11.75;35.47;99955.19;5090889;28;20068;-60
2022/04/20 00:45:28;;;;;;;2.33;1.35;;;;;;;11.71;35.61;99961.56;5089552;28;20048;-60
2022/04/20 00:47:58;;;;;;;4.05;1.60;;;;;;;11.66;35.95;99964.47;5089297;28;20512;-62
2022/04/20 00:50:24;;;;;;;1.42;1.20;;;;;;;11.63;35.67;99961.19;5089222;28;20055;-60
2022/04/20 00:52:51;;;;;;;3.42;1.60;;;;;;;11.59;35.71;99963.16;5090459;28;20609;-60
2022/04/20 00:55:27;;;;;;;2.08;1.40;;;;;;;11.57;35.81;99965.00;5090775;28;20052;-62
2022/04/20 00:57:54;;;;;;;3.65;1.25;;;;;;;11.53;36.04;99966.13;5090385;28;20101;-60
2022/04/20 01:00:21;;;;;;;2.13;1.17;;;;;;;11.49;35.82;99960.19;5090387;28;20125;-60
2022/04/20 01:02:47;;;;;;;2.25;1.17;;;;;;;11.46;35.93;99957.72;5090746;28;20056;-62
2022/04/20 01:05:14;;;;;;;2.97;1.52;;;;;;;11.43;35.95;99963.16;5090457;28;20047;-60
2022/04/20 01:07:41;;;;;;;4.95;1.33;;;;;;;11.39;36.02;99964.28;5090343;28;20056;-61
2022/04/20 01:10:08;;;;;;;1.55;1.13;;;;;;;11.35;36.05;99963.59;5090149;28;20078;-60
2022/04/20 01:12:35;;;;;;;1.77;1.17;;;;;;;11.31;36.26;99962.09;5091095;28;20048;-60
2022/04/20 01:15:02;;;;;;;2.85;1.10;;;;;;;11.26;36.32;99957.09;5093018;28;20485;-61
2022/04/20 01:17:29;;;;;;;2.78;1.38;;;;;;;11.23;36.38;99959.03;5093060;28;20047;-60
2022/04/20 01:19:56;;;;;;;1.95;1.25;;;;;;;11.19;36.29;99958.38;5094114;28;20117;-61
2022/04/20 01:22:23;;;;;;;1.98;1.42;;;;;;;11.15;36.45;99957.69;5094094;28;20048;-60
2022/04/20 01:24:49;;;;;;;2.67;1.23;;;;;;;11.12;36.61;99960.50;5094166;28;20052;-60
2022/04/20 01:27:16;;;;;;;2.35;1.10;;;;;;;11.12;36.69;99959.63;5094098;28;20058;-62
2022/04/20 01:29:43;;;;;;;2.13;1.40;;;;;;;11.07;36.85;99963.38;5093783;28;20044;-60
2022/04/20 01:32:10;;;;;;;2.10;1.15;;;;;;;11.07;37.05;99966.00;5092750;28;20420;-60
2022/04/20 01:34:36;;;;;;;1.65;1.30;;;;;;;11.06;36.95;99961.69;5093761;28;20482;-61
2022/04/20 01:37:03;;;;;;;1.83;1.35;;;;;;;11.07;37.04;99966.00;5094241;28;20396;-60
2022/04/20 01:39:30;;;;;;;3.10;1.10;;;;;;;11.07;36.94;99963.38;5093710;28;20487;-60
2022/04/20 01:41:56;;;;;;;1.52;1.10;;;;;;;11.08;36.92;99959.81;5093834;28;20432;-61
2022/04/20 01:44:23;;;;;;;1.45;1.20;;;;;;;11.11;37.01;99961.44;5093711;28;20074;-60
2022/04/20 01:46:49;;;;;;;3.63;1.42;;;;;;;11.13;37.02;99963.97;5093641;28;20070;-60
2022/04/20 01:49:16;;;;;;;4.22;1.83;;;;;;;11.13;36.91;99959.56;5093311;28;20044;-61
2022/04/20 01:51:51;;;;;;;1.38;1.10;;;;;;;11.16;36.97;99963.78;5093514;28;20055;-60
2022/04/20 01:54:22;;;;;;;3.95;1.55;;;;;;;11.16;36.96;99961.16;5093893;28;20138;-61
2022/04/20 01:56:50;;;;;;;1.40;1.20;;;;;;;11.16;36.85;99963.78;5092505;28;20151;-61
2022/04/20 01:59:16;;;;;;;1.65;1.10;;;;;;;11.17;36.95;99965.50;5091982;28;20051;-61
2022/04/20 02:04:29;;;;;;;4.85;1.40;;;;;;;11.16;36.85;99962.03;5093109;28;20677;-61
2022/04/20 02:06:56;;;;;;;1.75;1.10;;;;;;;11.16;36.91;99958.53;5093131;28;20090;-61
2022/04/20 02:09:24;;;;;;;2.53;1.38;;;;;;;11.15;37.14;99962.09;5093118;28;20044;-60
2022/04/20 02:11:50;;;;;;;1.85;1.10;;;;;;;11.15;36.96;99960.34;5093124;28;20059;-62
2022/04/20 02:14:17;;;;;;;3.80;1.13;;;;;;;11.13;37.06;99956.91;5091778;28;20052;-64
2022/04/20 02:16:44;;;;;;;2.75;1.52;;;;;;;11.12;36.91;99960.50;5093585;28;20385;-62
2022/04/20 02:19:10;;;;;;;1.20;1.10;;;;;;;11.07;37.02;99965.19;5092995;28;20060;-63
2022/04/20 02:21:37;;;;;;;2.97;1.42;;;;;;;11.03;37.12;99953.94;5092967;28;20047;-60
2022/04/20 02:24:04;;;;;;;2.63;1.42;;;;;;;11.01;37.12;99965.50;5092470;28;20052;-60
2022/04/20 02:26:30;;;;;;;1.98;1.23;;;;;;;10.96;37.06;99960.50;5093067;28;20642;-62
2022/04/20 02:28:57;;;;;;;2.60;1.27;;;;;;;10.91;37.29;99958.13;5092913;28;20069;-59
2022/04/20 02:31:23;;;;;;;1.55;1.35;;;;;;;10.87;37.24;99959.22;5092942;28;20058;-60
2022/04/20 02:33:50;;;;;;;2.58;1.23;;;;;;;10.80;37.04;99969.25;5092741;28;20428;-61
2022/04/20 02:36:17;;;;;;;2.78;1.15;;;;;;;10.74;37.46;99960.81;5092707;28;20534;-61
2022/04/20 02:38:44;;;;;;;1.90;1.30;;;;;;;10.68;37.49;99962.00;5092692;28;20093;-61
2022/04/20 02:41:10;;;;;;;1.98;1.45;;;;;;;10.63;37.41;99969.31;5092418;28;20424;-60
2022/04/20 02:43:37;;;;;;;2.35;1.38;;;;;;;10.58;37.49;99971.34;5092509;28;20085;-61
2022/04/20 02:46:04;;;;;;;5.07;1.17;;;;;;;10.53;37.72;99966.31;5092608;28;20048;-62
2022/04/20 02:48:31;;;;;;;1.95;1.30;;;;;;;10.49;37.80;99975.28;5092755;28;20504;-61
2022/04/20 02:50:58;;;;;;;3.92;1.30;;;;;;;10.45;37.64;99971.13;5092247;28;20101;-61
2022/04/20 02:53:24;;;;;;;2.42;1.52;;;;;;;10.41;37.83;99970.41;5091253;28;20052;-61
2022/04/20 02:55:51;;;;;;;3.72;1.90;;;;;;;10.39;37.75;99974.94;5092383;28;20488;-62
2022/04/20 02:58:17;;;;;;;3.03;1.27;;;;;;;10.36;38.04;99972.44;5092344;28;20496;-61
2022/04/20 03:00:45;;;;;;;2.67;1.50;;;;;;;10.36;37.83;99964.56;5092153;28;20480;-62
2022/04/20 03:03:12;;;;;;;2.30;1.33;;;;;;;10.32;38.07;99963.03;5090841;28;20059;-61
2022/04/20 03:05:39;;;;;;;2.17;1.50;;;;;;;10.31;38.05;99967.41;5092182;28;20051;-62
2022/04/20 03:08:05;;;;;;;2.25;1.52;;;;;;;10.28;38.28;99971.06;5092190;28;20066;-60
2022/04/20 03:10:32;;;;;;;1.92;1.50;;;;;;;10.29;38.38;99964.84;5091824;28;20105;-62
2022/04/20 03:12:59;;;;;;;3.50;1.65;;;;;;;10.29;38.39;99971.91;5091066;28;20048;-61
2022/04/20 03:15:29;;;;;;;2.17;1.67;;;;;;;10.28;38.27;99959.72;5090617;28;20198;-60
2022/04/20 03:17:57;;;;;;;2.45;1.60;;;;;;;10.27;38.35;99961.47;5091810;28;20484;-61
2022/04/20 03:20:24;;;;;;;2.40;1.50;;;;;;;10.27;38.34;99964.09;5091664;28;20052;-62
2022/04/20 03:22:51;;;;;;;2.35;1.40;;;;;;;10.27;38.59;99969.38;5091745;28;20048;-62
2022/04/20 03:25:18;;;;;;;1.70;1.45;;;;;;;10.27;38.73;99972.00;5091769;28;20052;-61
2022/04/20 03:27:44;;;;;;;2.47;1.58;;;;;;;10.28;38.32;99965.81;5092014;28;20060;-61
2022/04/20 03:30:13;;;;;;;2.50;1.50;;;;;;;10.28;38.58;99960.53;5091775;28;20114;-61
2022/04/20 03:32:40;;;;;;;3.72;1.85;;;;;;;10.28;38.25;99964.97;5091790;28;20139;-62
2022/04/20 03:35:08;;;;;;;2.88;1.42;;;;;;;10.28;38.38;99964.97;5090686;28;20059;-61
2022/04/20 03:37:35;;;;;;;3.55;1.50;;;;;;;10.28;38.46;99962.34;5091511;28;20056;-61
2022/04/20 03:40:03;;;;;;;2.13;1.60;;;;;;;10.25;38.69;99965.94;5091141;28;20492;-61
2022/04/20 03:42:29;;;;;;;1.58;1.40;;;;;;;10.23;38.56;99967.81;5090255;28;20055;-61
2022/04/20 03:44:56;;;;;;;3.20;1.65;;;;;;;10.21;38.24;99960.94;5091591;28;20048;-61
2022/04/20 03:47:22;;;;;;;3.50;1.60;;;;;;;10.19;38.75;99957.53;5091374;28;20044;-61
2022/04/20 03:49:49;;;;;;;2.65;1.50;;;;;;;10.17;38.63;99950.56;5091134;28;20055;-62
2022/04/20 03:52:16;;;;;;;3.17;1.63;;;;;;;10.15;38.67;99967.38;5090050;28;20064;-61
2022/04/20 03:54:42;;;;;;;2.85;1.70;;;;;;;10.14;38.95;99968.31;5090212;28;20051;-61
2022/04/20 03:57:10;;;;;;;3.65;1.42;;;;;;;10.10;38.64;99962.34;5091562;28;20052;-60
2022/04/20 03:59:38;;;;;;;3.22;2.00;;;;;;;10.06;38.96;99960.81;5091108;28;20055;-60
2022/04/20 04:02:05;;;;;;;4.53;1.65;;;;;;;10.03;39.00;99964.44;5091244;28;20125;-61
2022/04/20 04:04:33;;;;;;;4.07;1.90;;;;;;;10.01;38.99;99970.72;5090994;28;20739;-61
2022/04/20 04:06:59;;;;;;;2.20;1.75;;;;;;;9.97;38.98;99966.53;5089692;28;20048;-62
2022/04/20 04:09:26;;;;;;;2.92;1.67;;;;;;;9.92;39.17;99964.16;5090838;28;20070;-61
2022/04/20 04:11:54;;;;;;;2.58;1.75;;;;;;;9.89;39.34;99973.06;5091038;28;20432;-61
2022/04/20 04:14:20;;;;;;;3.05;1.58;;;;;;;9.88;39.54;99975.75;5089818;28;20051;-60
2022/04/20 04:16:47;;;;;;;1.75;1.42;;;;;;;9.83;39.30;99970.72;5090995;28;20097;-61
2022/04/20 04:19:13;;;;;;;5.25;1.88;;;;;;;9.82;39.41;99971.66;5090757;28;20075;-60
2022/04/20 04:21:40;;;;;;;4.80;1.83;;;;;;;9.82;39.82;99970.78;5090702;28;20048;-62
2022/04/20 04:24:08;;;;;;;2.20;1.70;;;;;;;9.80;39.54;99975.28;5090868;28;20044;-62
2022/04/20 04:26:35;;;;;;;2.20;1.92;;;;;;;9.78;39.85;99976.22;5091029;28;20051;-60
2022/04/20 04:29:02;;;;;;;2.95;1.65;;;;;;;9.78;39.60;99985.88;5090835;28;20075;-61
2022/04/20 04:31:30;;;;;;;5.20;1.85;;;;;;;9.75;39.76;99992.13;5090676;28;20101;-61
2022/04/20 04:33:56;;;;;;;4.20;1.90;;;;;;;9.74;39.84;99998.34;5090766;28;20052;-62
2022/04/20 04:36:23;;;;;;;3.40;1.70;;;;;;;9.73;39.73;99987.91;5090816;28;20181;-62
2022/04/20 04:38:50;;;;;;;4.03;2.00;;;;;;;9.72;39.87;99986.19;5091163;28;20056;-60
2022/04/20 04:41:16;;;;;;;5.90;2.20;;;;;;;9.70;40.12;99988.91;5090449;28;20593;-61
2022/04/20 04:43:43;;;;;;;5.82;1.80;;;;;;;9.69;40.16;99997.72;5090620;28;20049;-61
2022/04/20 04:48:54;;;;;;;4.20;2.00;;;;;;;9.69;40.21;99997.72;5090916;28;20106;-60
2022/04/20 04:51:21;;;;;;;3.75;1.95;;;;;;;9.68;40.43;99997.78;5090603;28;20188;-61
2022/04/20 04:53:47;;;;;;;3.05;1.88;;;;;;;9.67;40.45;100009.22;5090750;28;20125;-60
2022/04/20 04:56:14;;;;;;;3.00;1.70;;;;;;;9.64;40.44;99995.31;5090464;28;20048;-61
2022/04/20 04:58:40;;;;;;;4.28;1.83;;;;;;;9.63;40.43;100003.25;5090645;28;20043;-60
2022/04/20 05:01:07;;;;;;;3.13;1.83;;;;;;;9.61;40.83;99995.44;5088984;28;20060;-63
2022/04/20 05:03:33;;;;;;;3.50;1.48;;;;;;;9.59;40.67;100004.34;5090883;28;20134;-61
2022/04/20 05:06:00;;;;;;;2.08;1.58;;;;;;;9.57;40.75;100004.41;5090669;28;20051;-61
2022/04/20 05:08:26;;;;;;;4.03;2.00;;;;;;;9.56;41.21;100000.09;5090399;28;20455;-60
2022/04/20 05:10:53;;;;;;;2.85;1.85;;;;;;;9.55;41.01;100008.03;5089957;28;20074;-61
2022/04/20 05:13:20;;;;;;;3.95;2.30;;;;;;;9.54;40.81;100009.84;5090258;28;20455;-61
2022/04/20 05:15:46;;;;;;;5.03;2.13;;;;;;;9.55;41.21;100005.41;5090382;28;20093;-61
2022/04/20 05:18:13;;;;;;;5.32;2.05;;;;;;;9.55;41.23;100006.28;5089319;28;20056;-62
2022/04/20 05:20:40;;;;;;;1.90;1.60;;;;;;;9.57;41.12;100006.19;5090357;28;20048;-61
2022/04/20 05:23:08;;;;;;;2.88;2.33;;;;;;;9.58;41.38;100010.53;5090507;28;20113;-60
2022/04/20 05:25:34;;;;;;;2.17;1.95;;;;;;;9.59;41.10;100004.34;5090379;28;20060;-62
2022/04/20 05:28:06;;;;;;;4.10;2.08;;;;;;;9.60;41.57;100001.63;5090179;28;20101;-61
2022/04/20 05:30:33;;;;;;;2.42;1.80;;;;;;;9.62;41.37;100005.06;5090163;28;20484;-61
2022/04/20 05:33:00;;;;;;;5.65;2.00;;;;;;;9.64;41.17;100016.34;5090366;28;20044;-62
2022/04/20 05:35:26;;;;;;;5.65;2.13;;;;;;;9.66;41.51;100013.63;5090203;28;20105;-61
2022/04/20 05:43:24;;;;;;;2.72;1.80;;;;;;;9.78;41.31;100018.28;5090079;28;20677;-60
2022/04/20 05:45:51;;;;;;;4.82;1.85;;;;;;;9.83;41.60;100011.94;5090214;28;20078;-61
2022/04/20 05:48:24;;;;;;;2.58;1.85;;;;;;;9.87;41.25;100010.88;5089098;28;20138;-61
2022/04/20 05:50:50;;;;;;;2.72;1.95;;;;;;;9.91;41.13;100015.06;5089856;28;20117;-61
2022/04/20 05:53:17;;;;;;;4.95;2.00;;;;;;;9.95;41.21;100013.97;5089074;28;20055;-61
2022/04/20 05:55:43;;;;;;;4.47;2.08;;;;;;;10.00;41.63;100008.47;5089863;28;20048;-60
2022/04/20 05:58:10;;;;;;;5.30;1.98;;;;;;;10.02;41.22;100011.88;5090170;28;20063;-68
2022/04/20 06:00:37;;;;;;;3.60;2.30;;;;;;;10.05;41.50;100019.59;5092384;28;20151;-60
2022/04/20 06:03:04;;;;;;;3.55;2.00;;;;;;;10.07;41.46;100017.75;5093500;28;20048;-62
2022/04/20 06:05:30;;;;;;;3.08;2.15;;;;;;;10.12;41.32;100014.88;5092254;28;20101;-61
2022/04/20 06:07:57;;;;;;;4.15;2.25;;;;;;;10.17;41.83;100012.88;5093292;28;20056;-61
2022/04/20 06:10:23;;;;;;;3.00;1.80;;;;;;;10.21;41.49;100014.41;5093486;28;20056;-61
2022/04/20 06:12:50;;;;;;;4.70;2.00;;;;;;;10.26;41.65;100012.41;5092025;28;20059;-60
2022/04/20 06:15:17;;;;;;;3.67;2.00;;;;;;;10.32;41.79;100013.00;5093437;28;20052;-63
2022/04/20 06:17:44;;;;;;;4.20;2.33;;;;;;;10.36;41.79;100017.19;5093159;28;20151;-61
2022/04/20 06:20:11;;;;;;;6.35;2.30;;;;;;;10.40;41.58;100016.94;5092888;28;20052;-61
2022/04/20 06:22:37;;;;;;;3.33;2.15;;;;;;;10.45;41.67;100013.22;5093269;28;20059;-61
2022/04/20 06:25:04;;;;;;;4.20;2.05;;;;;;;10.48;41.44;100016.59;5093268;28;20193;-61
2022/04/20 06:27:32;;;;;;;3.78;2.22;;;;;;;10.51;41.56;100019.03;5092756;28;20213;-61
2022/04/20 06:29:58;;;;;;;4.38;2.05;;;;;;;10.54;41.66;100025.91;5091762;28;20059;-61
2022/04/20 06:32:27;;;;;;;4.35;2.10;;;;;;;10.59;41.63;100012.50;5093203;28;20527;-60
2022/04/20 06:34:54;;;;;;;4.93;2.53;;;;;;;10.62;41.52;100018.47;5092986;28;20048;-61
2022/04/20 06:37:23;;;;;;;4.43;2.15;;;;;;;10.65;41.79;100020.09;5093343;28;20051;-61
2022/04/20 06:39:50;;;;;;;3.53;2.20;;;;;;;10.69;41.55;100016.34;5092687;28;20048;-61
2022/04/20 06:42:18;;;;;;;3.53;2.10;;;;;;;10.72;41.38;100016.19;5092769;28;20044;-60
2022/04/20 06:44:45;;;;;;;3.55;2.15;;;;;;;10.78;41.61;100026.41;5091251;28;20493;-62
2022/04/20 06:47:11;;;;;;;3.78;2.45;;;;;;;10.82;41.48;100021.81;5092738;28;20488;-60
2022/04/20 06:49:38;;;;;;;6.07;2.53;;;;;;;10.86;41.73;100025.13;5091594;28;20109;-62
2022/04/20 07:00:20;;;;;;;8.15;2.22;;;;;;;11.08;41.60;100009.88;5091702;28;20055;-60
2022/04/20 07:02:47;;;;;;;7.00;2.70;;;;;;;11.14;41.51;100019.22;5092508;28;20489;-60
2022/04/20 07:05:13;;;;;;;5.35;2.85;;;;;;;11.19;41.50;100021.59;5092349;28;20416;-62
2022/04/20 07:07:40;;;;;;;2.95;2.30;;;;;;;11.23;41.61;100015.22;5092119;28;20052;-62
2022/04/20 07:10:24;;;;;;;4.90;2.40;;;;;;;11.30;41.37;100007.81;5090662;28;20080;-61
2022/04/20 07:12:52;;;;;;;3.47;2.40;;;;;;;11.34;41.42;100019.91;5090947;28;20051;-61
2022/04/20 07:15:19;;;;;;;4.78;2.55;;;;;;;11.39;41.33;100019.63;5092265;28;20078;-61
2022/04/20 07:17:46;;;;;;;4.13;2.45;;;;;;;11.44;41.24;100020.25;5092126;28;20047;-61
2022/04/20 07:20:17;;;;;;;3.97;2.33;;;;;;;11.47;41.11;100017.41;5092200;28;20126;-61
2022/04/20 07:22:47;;;;;;;4.68;2.67;;;;;;;11.51;41.37;100021.56;5091763;28;20048;-62
2022/04/20 07:25:15;;;;;;;3.15;2.30;;;;;;;11.56;41.40;100016.88;5090458;28;20048;-60
2022/04/20 07:27:43;;;;;;;3.58;2.45;;;;;;;11.62;41.26;100028.03;5092297;28;20105;-61
2022/04/20 07:30:10;;;;;;;3.95;2.40;;;;;;;11.66;41.35;100030.38;5091820;28;20420;-60
2022/04/20 07:32:36;;;;;;;5.20;2.20;;;;;;;11.72;41.27;100030.06;5091949;28;20107;-62
2022/04/20 07:35:03;;;;;;;5.03;1.95;;;;;;;11.78;41.23;100033.28;5091835;28;20527;-61
2022/04/20 07:37:31;;;;;;;4.30;2.50;;;;;;;11.83;41.19;100031.22;5090768;28;20044;-61
2022/04/20 07:39:58;;;;;;;4.68;2.25;;;;;;;11.88;41.34;100031.78;5091471;28;20458;-60
2022/04/20 07:42:25;;;;;;;4.45;2.28;;;;;;;11.94;41.30;100027.94;5091199;28;20052;-61
2022/04/20 07:44:56;;;;;;;7.65;2.65;;;;;;;12.02;41.45;100032.78;5091744;28;20446;-68
2022/04/20 07:47:24;;;;;;;8.52;2.55;;;;;;;12.06;41.79;100032.53;5090558;28;20067;-63
2022/04/20 07:52:38;;;;;;;3.05;2.60;;;;;;;12.22;41.62;100031.63;5091443;28;20819;-62
2022/04/20 07:55:13;;;;;;;4.28;2.40;;;;;;;12.27;41.74;100032.22;5091657;28;20048;-62
2022/04/20 07:57:42;;;;;;;2.95;2.22;;;;;;;12.36;41.37;100034.31;5090131;28;20476;-61
2022/04/20 08:00:11;;;;;;;3.70;2.17;;;;;;;12.43;41.40;100033.91;5090939;28;20139;-62
2022/04/20 08:02:38;;;;;;;4.05;2.47;;;;;;;12.50;41.42;100035.25;5091498;28;20048;-61
2022/04/20 08:05:05;;;;;;;4.90;2.40;;;;;;;12.58;41.38;100029.50;5091533;28;20428;-62
2022/04/20 08:07:33;;;;;;;3.58;2.30;;;;;;;12.65;41.50;100028.19;5091395;28;20056;-60
2022/04/20 08:10:00;;;;;;;3.03;2.20;;;;;;;12.72;41.21;100036.59;5089655;28;20481;-61
2022/04/20 08:12:28;;;;;;;5.93;2.92;;;;;;;12.80;41.54;100030.81;5091047;28;20052;-61
2022/04/20 08:14:55;;;;;;;3.10;2.10;;;;;;;12.87;41.35;100032.97;5090876;28;20055;-60
2022/04/20 08:17:21;;;;;;;9.88;2.28;;;;;;;12.95;41.51;100029.88;5091047;28;20093;-63
2022/04/20 08:19:48;;;;;;;3.05;2.15;;;;;;;13.04;41.35;100039.00;5090621;28;20093;-62
2022/04/20 08:22:14;;;;;;;4.93;2.15;;;;;;;13.13;41.02;100037.59;5090202;28;20097;-60
2022/04/20 08:24:45;;;;;;;6.35;2.50;;;;;;;13.20;41.11;100035.41;5090796;28;20071;-61
2022/04/20 08:27:14;;;;;;;3.53;1.85;;;;;;;13.28;40.99;100041.88;5089457;28;20048;-62
2022/04/20 08:29:42;;;;;;;4.75;2.30;;;;;;;13.36;41.03;100032.63;5089432;28;20109;-65
2022/04/20 08:32:09;;;;;;;3.25;1.98;;;;;;;13.44;41.27;100040.91;5090450;28;20547;-66
2022/04/20 08:34:36;;;;;;;2.70;2.08;;;;;;;13.54;41.16;100041.19;5090727;28;20055;-66
2022/04/20 08:37:23;;;;;;;7.15;2.45;;;;;;;13.65;41.15;100045.78;5090714;28;20497;-65
2022/04/20 08:39:49;;;;;;;3.33;1.98;;;;;;;13.75;40.80;100049.50;5090375;28;20167;-66
2022/04/20 08:42:19;;;;;;;4.63;2.58;;;;;;;13.86;40.63;100047.97;5090297;28;20044;-65
2022/04/20 08:44:51;;;;;;;3.80;2.25;;;;;;;13.96;40.71;100050.84;5089337;28;20055;-66
2022/04/20 08:47:21;;;;;;;4.57;2.10;;;;;;;14.04;40.21;100041.44;5090622;28;20048;-66
2022/04/20 08:49:49;;;;;;;2.58;2.00;;;;;;;14.15;40.05;100032.78;5089466;28;20441;-66
2022/04/20 08:55:13;;;;;;;2.90;1.85;;;;;;;14.33;39.76;100043.06;5090469;28;20500;-64
2022/04/20 08:57:43;;;;;;;6.35;1.80;;;;;;;14.41;39.43;100043.41;5089330;28;20055;-65
2022/04/20 09:00:12;;;;;;;3.42;1.80;;;;;;;14.49;39.56;100045.50;5088898;28;20074;-64
2022/04/20 09:02:39;;;;;;;2.47;1.70;;;;;;;14.59;39.26;100038.59;5089040;28;20048;-64
2022/04/20 09:05:07;;;;;;;2.33;1.90;;;;;;;14.66;39.55;100041.66;5090339;28;20052;-66
2022/04/20 09:07:34;;;;;;;2.67;1.70;;;;;;;14.76;39.45;100043.72;5089363;28;20044;-64
2022/04/20 09:10:01;;;;;;;1.98;1.70;;;;;;;14.84;38.98;100036.94;5090219;28;20109;-65
2022/04/20 09:12:28;;;;;;;2.35;1.67;;;;;;;14.93;38.83;100038.09;5090202;28;20052;-64
2022/04/20 09:14:56;;;;;;;2.72;1.90;;;;;;;15.01;38.64;100040.19;5088900;28;20052;-64
2022/04/20 09:17:26;;;;;;;2.58;1.73;;;;;;;15.09;38.87;100024.59;5090301;28;20457;-64
2022/04/20 09:19:55;;;;;;;4.63;2.20;;;;;;;15.19;38.37;100027.44;5090056;28;20063;-66
2022/04/20 09:22:27;;;;;;;3.83;2.17;;;;;;;15.29;38.06;100018.78;5088974;28;20048;-64
2022/04/20 09:25:03;;;;;;;2.60;1.70;;;;;;;15.38;37.87;100023.44;5090254;28;20108;-64
2022/04/20 09:27:32;;;;;;;4.30;2.33;;;;;;;15.48;37.88;100018.31;5088994;28;20105;-65
2022/04/20 09:29:59;;;;;;;2.05;1.67;;;;;;;15.57;37.45;100022.06;5088850;28;20044;-65
2022/04/20 09:32:35;;;;;;;1.98;1.45;;;;;;;15.63;37.40;100016.31;5090289;28;20059;-64
2022/04/20 09:35:05;;;;;;;2.95;1.80;;;;;;;15.73;38.15;100021.75;5093533;28;20060;-64
2022/04/20 09:37:33;;;;;;;2.20;1.52;;;;;;;15.82;38.38;100023.75;5092914;28;20047;-65
2022/04/20 09:40:01;;;;;;;2.47;1.80;;;;;;;15.93;38.13;100028.25;5092544;28;20059;-65
2022/04/20 09:42:28;;;;;;;2.70;1.88;;;;;;;16.04;38.03;100031.94;5093522;28;20102;-63
2022/04/20 09:44:57;;;;;;;3.05;1.90;;;;;;;16.12;37.46;100025.06;5092718;28;20089;-60
2022/04/20 09:50:12;;;;;;;2.78;1.75;;;;;;;16.28;36.85;100029.22;5093473;28;20060;-61
2022/04/20 09:52:40;;;;;;;2.13;1.70;;;;;;;16.34;36.92;100023.41;5092414;28;20676;-62
2022/04/20 09:55:12;;;;;;;3.33;2.10;;;;;;;16.40;36.94;100022.09;5092017;28;20059;-62
2022/04/20 09:57:40;;;;;;;2.75;1.75;;;;;;;16.49;37.28;100018.72;5092340;28;20052;-63
2022/04/20 10:00:10;;;;;;;4.75;1.90;;;;;;;16.56;37.34;100019.09;5092246;28;20471;-62
2022/04/20 10:02:51;;;;;;;3.70;2.08;;;;;;;16.63;37.03;100022.13;5093768;28;20095;-63
2022/04/20 10:05:20;;;;;;;7.18;2.45;;;;;;;16.72;37.09;100012.56;5092232;28;20514;-62
2022/04/20 10:07:54;;;;;;;3.38;2.10;;;;;;;16.83;36.88;100014.38;5093541;28;20075;-62
2022/04/20 10:10:22;;;;;;;2.95;1.67;;;;;;;16.92;36.66;100008.34;5093504;28;20048;-64
2022/04/20 10:12:54;;;;;;;3.88;2.17;;;;;;;17.00;36.62;100003.25;5092318;28;20048;-62
2022/04/20 10:18:21;;;;;;;5.05;1.80;;;;;;;17.19;36.08;99999.13;5093673;28;20079;-62
2022/04/20 10:20:50;;;;;;;4.45;1.95;;;;;;;17.30;37.13;99992.94;5093195;28;20055;-63
2022/04/20 10:23:19;;;;;;;3.05;1.65;;;;;;;17.37;35.92;99995.94;5091876;28;20059;-62
2022/04/20 10:25:48;;;;;;;2.80;1.75;;;;;;;17.45;35.95;99994.34;5091791;28;20055;-62
2022/04/20 10:28:27;;;;;;;2.60;1.60;;;;;;;17.56;35.84;99979.28;5091764;28;20485;-62
2022/04/20 10:31:24;;;;;;;3.45;1.75;;;;;;;17.66;36.06;99990.03;5091653;28;20058;-65
2022/04/20 10:33:53;;;;;;;2.33;1.77;;;;;;;17.81;35.75;99988.75;5093268;28;20050;-62
2022/04/20 10:36:29;;;;;;;3.47;1.80;;;;;;;17.89;35.09;99981.91;5091452;28;20488;-62
2022/04/20 10:39:19;;;;;;;5.28;1.42;;;;;;;17.98;35.57;99975.81;5091684;28;20051;-62
2022/04/20 10:42:19;;;;;;;5.28;1.75;;;;;;;18.10;35.94;99976.63;5091741;28;20535;-62
2022/04/20 10:44:55;;;;;;;2.13;1.63;;;;;;;18.23;34.91;99963.09;5092400;28;20048;-61
2022/04/20 10:47:29;;;;;;;2.33;1.90;;;;;;;18.34;34.87;99960.34;5093090;28;20055;-62
2022/04/20 10:50:14;;;;;;;1.65;1.55;;;;;;;18.45;35.04;99966.56;5091413;28;20131;-62
2022/04/20 10:52:46;;;;;;;2.58;1.70;;;;;;;18.60;35.31;99959.03;5092859;28;20048;-62
2022/04/20 10:55:12;;;;;;;1.50;1.40;;;;;;;18.79;36.05;99954.72;5092601;28;20105;-61
2022/04/20 10:57:41;;;;;;;3.15;1.90;;;;;;;19.04;36.44;99960.56;5092544;28;20488;-63
2022/04/20 11:00:16;;;;;;;3.47;1.55;;;;;;;19.36;36.00;99954.19;5091175;28;20044;-62
2022/04/20 11:02:48;;;;;;;2.50;1.75;;;;;;;19.84;35.11;99959.63;5090762;28;20093;-67
2022/04/20 11:05:18;;;;;;;3.65;1.48;;;;;;;20.39;35.99;99944.72;5090728;28;20101;-66
2022/04/20 11:08:11;;;;;;;2.90;1.63;;;;;;;21.03;34.35;99949.31;5088981;28;20055;-64
2022/04/20 11:10:43;;;;;;;2.13;1.70;;;;;;;21.74;34.36;99944.13;5090357;28;20499;-62
2022/04/20 11:19:12;;;;;;;2.53;1.67;;;;;;;23.67;32.01;99931.25;5092523;28;20066;-60
2022/04/20 11:22:09;;;;;;;2.78;1.75;;;;;;;24.23;32.10;99919.72;5090646;28;20056;-61
2022/04/20 11:24:41;;;;;;;1.58;1.48;;;;;;;24.81;31.06;99927.53;5091011;28;20044;-60
2022/04/20 11:27:08;;;;;;;2.55;1.58;;;;;;;25.21;30.49;99916.69;5092171;28;20052;-60
2022/04/20 11:29:35;;;;;;;2.58;1.67;;;;;;;25.55;29.84;99916.41;5090434;28;20060;-60
2022/04/20 11:32:04;;;;;;;4.10;1.60;;;;;;;25.87;29.45;99911.78;5091883;28;20055;-60
2022/04/20 11:34:34;;;;;;;4.88;1.60;;;;;;;26.17;28.66;99894.75;5090526;28;20060;-60
2022/04/20 11:37:03;;;;;;;1.90;1.67;;;;;;;26.44;28.75;99912.16;5090210;28;20040;-60
2022/04/20 11:39:31;;;;;;;4.95;1.73;;;;;;;26.71;27.91;99895.41;5089555;28;20416;-60
2022/04/20 11:41:59;;;;;;;2.72;1.60;;;;;;;26.96;27.75;99901.34;5091360;28;20060;-59
2022/04/20 11:44:27;;;;;;;3.33;1.42;;;;;;;27.21;27.43;99905.53;5091370;28;20059;-60
2022/04/20 11:47:01;;;;;;;3.42;1.88;;;;;;;27.37;26.89;99910.66;5088874;28;20047;-60
2022/04/20 11:49:42;;;;;;;2.63;1.23;;;;;;;27.56;26.38;99905.59;5091443;28;20130;-62
2022/04/20 11:52:11;;;;;;;3.40;1.40;;;;;;;27.80;26.77;99898.94;5089979;28;20067;-60
2022/04/20 11:54:39;;;;;;;2.47;1.40;;;;;;;28.00;25.91;99906.38;5091383;28;20092;-62
2022/04/20 11:57:07;;;;;;;1.73;1.52;;;;;;;28.17;25.65;99901.44;5089131;28;20582;-60
2022/04/20 11:59:45;;;;;;;1.48;1.30;;;;;;;28.30;25.83;99902.59;5089859;28;20048;-60
2022/04/20 12:02:15;;;;;;;2.00;1.05;;;;;;;28.44;25.52;99893.47;5089804;28;20056;-61
2022/04/20 12:04:43;;;;;;;2.15;1.10;;;;;;;28.51;25.35;99898.09;5090312;28;20075;-62
2022/04/20 12:07:10;;;;;;;6.15;1.40;;;;;;;28.56;24.92;99893.72;5091474;28;20051;-60
2022/04/20 12:09:40;;;;;;;1.23;0.90;;;;;;;28.64;24.81;99890.00;5089732;28;20063;-60
2022/04/20 12:12:12;;;;;;;4.72;1.20;;;;;;;28.74;24.55;99889.59;5089667;28;20710;-61
2022/04/20 12:14:43;;;;;;;1.17;1.00;;;;;;;28.83;24.15;99890.25;5091334;28;20124;-64